TimeACDT,TemperatureF,Dew PointF,Humidity,Sea Level PressureIn,VisibilityMPH,Wind Direction,Wind SpeedMPH,Gust SpeedMPH,PrecipitationIn,Events,Conditions,WindDirDegrees,DateUTC
12:00 AM,54,47,69,,,South,4.6,,,,,180,2013-11-22 13:30:00
12:30 AM,53,45,65,,,South,4.6,,,,,170,2013-11-22 14:00:00
2:30 AM,54,46,66,,,SSW,3.5,,,,,210,2013-11-22 16:00:00
3:00 AM,54,46,66,,,South,5.8,,,,,170,2013-11-22 16:30:00
3:30 AM,53,45,66,,,South,4.6,,,,,180,2013-11-22 17:00:00
5:30 AM,52,47,79,,,South,5.8,,,,,180,2013-11-22 19:00:00
6:00 AM,52,47,77,,,SSW,3.5,,,,,210,2013-11-22 19:30:00
6:30 AM,51,47,82,,,SSW,2.3,,,,,210,2013-11-22 20:00:00
8:30 AM,56,51,78,,,South,6.9,,,,,190,2013-11-22 22:00:00
9:00 AM,60,51,64,,,SSE,6.9,,,,Unknown Precipitation,160,2013-11-22 22:30:00
9:30 AM,57,51,74,,,South,9.2,,,,,180,2013-11-22 23:00:00
11:30 AM,64,48,45,,,SSE,16.1,,,,,150,2013-11-23 01:00:00
12:00 PM,64,46,41,,,SSE,16.1,,,,,150,2013-11-23 01:30:00
12:30 PM,64,45,39,,,South,16.1,,,,,170,2013-11-23 02:00:00
2:30 PM,63,47,45,,,SSE,12.7,,,,,150,2013-11-23 04:00:00
3:00 PM,62,48,51,,,SSE,16.1,,,,,150,2013-11-23 04:30:00
3:30 PM,64,47,43,,,SSE,12.7,,,,,160,2013-11-23 05:00:00
5:30 PM,60,47,51,,,South,16.1,,,,,170,2013-11-23 07:00:00
6:00 PM,59,47,54,,,South,15.0,,,,,170,2013-11-23 07:30:00
6:30 PM,58,47,58,,,South,13.8,,,,,170,2013-11-23 08:00:00
8:30 PM,57,44,52,,,South,10.4,,,,,170,2013-11-23 10:00:00
9:00 PM,56,45,57,,,SSE,12.7,,,,,160,2013-11-23 10:30:00
9:30 PM,56,44,54,,,South,11.5,,,,,170,2013-11-23 11:00:00
11:30 PM,55,43,53,,,SSE,12.7,,,,,150,2013-11-23 13:00:00